createdAt,value
2023-03-16T00:00:27.987Z,100736.59
2023-03-16T00:01:29.924Z,100754.56
2023-03-16T00:02:31.778Z,100756.41
2023-03-16T00:03:33.809Z,100762.72
2023-03-16T00:04:37.726Z,100758.38
2023-03-16T00:05:39.704Z,100759.09
2023-03-16T00:06:41.591Z,100759.34
2023-03-16T00:07:43.931Z,100764.66
2023-03-16T00:08:46.680Z,100773.50
2023-03-16T00:09:48.664Z,100770.00
2023-03-16T00:10:54.159Z,100771.81
2023-03-16T00:11:56.011Z,100770.97
2023-03-16T00:12:57.952Z,100782.59
2023-03-16T00:13:59.903Z,100781.75
2023-03-16T00:15:02.270Z,100780.91
2023-03-16T00:16:04.593Z,100781.88
2023-03-16T00:17:06.486Z,100789.88
2023-03-16T00:18:08.658Z,100781.16
2023-03-16T00:19:10.973Z,100791.81
2023-03-16T00:20:12.953Z,100784.78
2023-03-16T00:21:15.144Z,100787.44
2023-03-16T00:22:17.105Z,100787.44
2023-03-16T00:23:27.085Z,100780.34
2023-03-16T00:24:29.111Z,100803.44
2023-03-16T00:25:33.629Z,100799.94
2023-03-16T00:26:35.489Z,100790.59
2023-03-16T00:27:37.564Z,100795.22
2023-03-16T00:28:39.544Z,100798.47
2023-03-16T00:29:49.620Z,100808.28
2023-03-16T00:30:52.245Z,100804.63
2023-03-16T00:31:54.120Z,100813.59
2023-03-16T00:32:55.985Z,100812.41
2023-03-16T00:33:57.916Z,100816.41
2023-03-16T00:35:00.219Z,100819.44
2023-03-16T00:36:04.015Z,100809.31
2023-03-16T00:37:06.067Z,100820.16
2023-03-16T00:38:07.920Z,100821.13
2023-03-16T00:39:11.870Z,100824.75
2023-03-16T00:40:14.026Z,100824.75
2023-03-16T00:41:17.110Z,100818.16
2023-03-16T00:42:21.225Z,100825.88
2023-03-16T00:43:23.193Z,100821.03
2023-03-16T00:44:25.013Z,100832.03
2023-03-16T00:45:27.678Z,100832.03
2023-03-16T00:46:29.464Z,100829.63
2023-03-16T00:47:33.187Z,100834.84
2023-03-16T00:48:36.507Z,100826.97
2023-03-16T00:49:38.290Z,100833.97
2023-03-16T00:50:40.264Z,100837.63
2023-03-16T00:51:45.989Z,100838.59
2023-03-16T00:52:48.127Z,100838.84
2023-03-16T00:53:49.906Z,100841.25
2023-03-16T00:54:54.689Z,100846.59
2023-03-16T00:55:56.504Z,100836.19
2023-03-16T00:56:59.245Z,100842.34
2023-03-16T00:58:05.112Z,100839.56
2023-03-16T00:59:07.021Z,100845.88
2023-03-16T01:00:13.182Z,100845.16
2023-03-16T01:01:19.026Z,100842.34
2023-03-16T01:02:23.752Z,100846.72
2023-03-16T01:03:25.631Z,100855.53
2023-03-16T01:04:27.433Z,100849.50
2023-03-16T01:05:29.237Z,100852.28
2023-03-16T01:06:31.904Z,100857.75
2023-03-16T01:07:36.184Z,100843.81
2023-03-16T01:08:39.673Z,100850.72
2023-03-16T01:09:43.528Z,100850.00
2023-03-16T01:10:46.460Z,100850.97
2023-03-16T01:11:51.510Z,100853.38
2023-03-16T01:12:56.317Z,100851.69
2023-03-16T01:13:58.149Z,100857.75
2023-03-16T01:15:00.560Z,100854.38
2023-03-16T01:16:03.093Z,100858.00
2023-03-16T01:17:08.578Z,100852.66
2023-03-16T01:18:10.692Z,100856.16
2023-03-16T01:19:14.149Z,100857.13
2023-03-16T01:20:19.487Z,100834.34
2023-03-16T01:21:22.068Z,100859.78
2023-03-16T01:22:25.069Z,100856.31
2023-03-16T01:23:26.850Z,100853.66
2023-03-16T01:24:29.122Z,100858.25
2023-03-16T01:25:31.051Z,100841.09
2023-03-16T01:26:32.940Z,100852.94
2023-03-16T01:27:34.856Z,100854.63
2023-03-16T01:28:37.194Z,100852.06
2023-03-16T01:29:40.187Z,100848.56
2023-03-16T01:30:43.747Z,100856.56
2023-03-16T01:31:45.717Z,100867.06
2023-03-16T01:32:47.638Z,100856.56
2023-03-16T01:33:49.497Z,100867.22
2023-03-16T01:34:55.700Z,100863.69
2023-03-16T01:36:04.724Z,100865.53
2023-03-16T01:37:14.896Z,100867.78
2023-03-16T01:38:25.688Z,100860.19
2023-03-16T01:39:27.809Z,100875.91
2023-03-16T01:40:29.962Z,100870.69
2023-03-16T01:41:32.138Z,100872.53
2023-03-16T01:42:44.457Z,100874.34
2023-03-16T01:43:47.000Z,100879.56
2023-03-16T01:45:02.121Z,100864.56
2023-03-16T01:46:21.551Z,100878.44
2023-03-16T01:47:24.766Z,100883.75
2023-03-16T01:48:27.797Z,100878.69
2023-03-16T01:49:34.063Z,100882.47
2023-03-16T01:50:36.710Z,100885.13
2023-03-16T01:51:51.954Z,100846.19
2023-03-16T01:52:54.656Z,100887.78
2023-03-16T01:54:02.718Z,100897.72
2023-03-16T01:55:08.808Z,100886.09
2023-03-16T01:56:13.322Z,100887.06
2023-03-16T01:57:30.476Z,100894.91
2023-03-16T01:58:32.635Z,100882.25
2023-03-16T01:59:43.173Z,100894.09
2023-03-16T02:00:45.848Z,100891.44
2023-03-16T02:01:57.070Z,100892.25
2023-03-16T02:03:06.035Z,100891.53
2023-03-16T02:04:34.513Z,100891.88
2023-03-16T02:05:55.085Z,100897.22
2023-03-16T02:07:00.528Z,100900.00
2023-03-16T02:08:08.202Z,100899.28
2023-03-16T02:09:10.759Z,100891.94
2023-03-16T02:10:14.565Z,100902.31
2023-03-16T02:11:18.237Z,100898.94
2023-03-16T02:12:46.706Z,100901.94
2023-03-16T02:13:49.769Z,100908.38
2023-03-16T02:14:52.295Z,100896.13
2023-03-16T02:15:55.149Z,100900.38
2023-03-16T02:16:57.625Z,100903.53
2023-03-16T02:18:00.369Z,100911.38
2023-03-16T02:19:05.774Z,100909.69
2023-03-16T02:20:19.941Z,100906.06
2023-03-16T02:21:35.492Z,100912.84
2023-03-16T02:22:42.268Z,100908.88
2023-03-16T02:23:47.355Z,100921.78
2023-03-16T02:24:52.840Z,100913.94
2023-03-16T02:25:57.587Z,100914.06
2023-03-16T02:27:10.440Z,100908.63
2023-03-16T02:28:31.144Z,100905.44
2023-03-16T02:30:06.705Z,100917.78
2023-03-16T02:31:17.442Z,100919.50
2023-03-16T02:32:22.190Z,100924.91
2023-03-16T02:33:25.558Z,100920.09
2023-03-16T02:34:28.477Z,100922.03
2023-03-16T02:35:31.256Z,100933.56
2023-03-16T02:36:34.696Z,100931.00
2023-03-16T02:37:36.841Z,100928.69
2023-03-16T02:38:38.795Z,100935.50
2023-03-16T02:39:44.123Z,100938.16
2023-03-16T02:40:59.721Z,100939.84
2023-03-16T02:42:03.094Z,100938.88
2023-03-16T02:43:04.959Z,100905.25
2023-03-16T02:44:17.818Z,100938.97
2023-03-16T02:45:19.825Z,100942.38
2023-03-16T02:46:25.741Z,100946.13
2023-03-16T02:47:34.146Z,100950.50
2023-03-16T02:48:56.549Z,100948.41
2023-03-16T02:49:58.403Z,100949.28
2023-03-16T02:51:00.310Z,100946.72
2023-03-16T02:52:03.647Z,100954.84
2023-03-16T02:53:08.558Z,100959.31
2023-03-16T02:54:11.629Z,100954.13
2023-03-16T02:55:14.978Z,100951.69
2023-03-16T02:56:17.002Z,100964.63
2023-03-16T02:57:19.037Z,100951.09
2023-03-16T02:58:21.178Z,100950.47
2023-03-16T02:59:23.219Z,100967.44
2023-03-16T03:00:25.132Z,100961.75
2023-03-16T03:01:27.038Z,100973.69
2023-03-16T03:02:29.819Z,100967.44
2023-03-16T03:03:34.456Z,100967.31
2023-03-16T03:04:36.357Z,100982.44
2023-03-16T03:05:38.745Z,100977.13
2023-03-16T03:06:41.841Z,100972.16
2023-03-16T03:07:43.721Z,100980.59
2023-03-16T03:08:45.591Z,100987.75
2023-03-16T03:09:47.915Z,100984.25
2023-03-16T03:10:49.959Z,100984.25
2023-03-16T03:11:51.762Z,100990.44
2023-03-16T03:12:53.616Z,100986.91
2023-03-16T03:13:56.297Z,100994.06
2023-03-16T03:15:01.167Z,100972.50
2023-03-16T03:16:08.664Z,100981.94
2023-03-16T03:17:10.817Z,100988.13
2023-03-16T03:18:12.639Z,100990.44
2023-03-16T03:19:15.109Z,100992.13
2023-03-16T03:20:17.949Z,100995.13
2023-03-16T03:21:19.840Z,100988.13
2023-03-16T03:22:21.692Z,100996.59
2023-03-16T03:23:23.735Z,101005.53
2023-03-16T03:24:28.101Z,100975.16
2023-03-16T03:25:30.016Z,101016.09
2023-03-16T03:26:31.863Z,101003.75
2023-03-16T03:27:36.019Z,101010.97
2023-03-16T03:28:41.458Z,101007.13
2023-03-16T03:29:44.703Z,101008.09
2023-03-16T03:30:46.564Z,101004.34
2023-03-16T03:31:48.478Z,101020.53
2023-03-16T03:32:52.533Z,101013.03
2023-03-16T03:33:55.845Z,101032.78
2023-03-16T03:34:57.833Z,101040.88
2023-03-16T03:36:02.368Z,101036.41
2023-03-16T03:37:09.952Z,101038.09
2023-03-16T03:38:14.575Z,101045.13
2023-03-16T03:39:19.557Z,101040.16
2023-03-16T03:40:24.892Z,101040.25
2023-03-16T03:41:33.496Z,101050.44
2023-03-16T03:42:37.777Z,101017.88
2023-03-16T03:43:41.466Z,101057.56
2023-03-16T03:44:48.941Z,101052.97
2023-03-16T03:45:57.087Z,101058.53
2023-03-16T03:46:59.113Z,101055.41
2023-03-16T03:48:01.864Z,101063.88
2023-03-16T03:49:05.400Z,101066.66
2023-03-16T03:50:11.332Z,101064.84
2023-03-16T03:51:23.285Z,101070.06
2023-03-16T03:52:37.145Z,101069.81
2023-03-16T03:53:39.051Z,101058.06
2023-03-16T03:54:54.933Z,101068.13
2023-03-16T03:55:56.864Z,101072.97
2023-03-16T03:56:58.702Z,101075.72
2023-03-16T03:58:00.678Z,101083.72
2023-03-16T03:59:03.631Z,101076.59
2023-03-16T04:00:25.673Z,101078.03
2023-03-16T04:01:27.973Z,101073.69
2023-03-16T04:02:30.013Z,101077.31
2023-03-16T04:03:32.297Z,101079.25
2023-03-16T04:04:34.373Z,101082.84
2023-03-16T04:05:36.305Z,101081.16
2023-03-16T04:06:38.099Z,101083.22
2023-03-16T04:07:39.911Z,101087.44
2023-03-16T04:08:44.877Z,101089.13
2023-03-16T04:09:50.387Z,101077.50
2023-03-16T04:10:59.539Z,101091.69
2023-03-16T04:12:03.347Z,101084.19
2023-03-16T04:13:05.180Z,101097.13
2023-03-16T04:14:09.054Z,101097.13
2023-03-16T04:15:13.511Z,101098.00
2023-03-16T04:16:27.683Z,101102.25
2023-03-16T04:17:31.201Z,101108.53
2023-03-16T04:18:38.659Z,101108.75
2023-03-16T04:19:41.749Z,101107.78
2023-03-16T04:20:48.486Z,101105.97
2023-03-16T04:21:53.904Z,101113.09
2023-03-16T04:22:58.648Z,101101.63
2023-03-16T04:24:04.098Z,101106.06
2023-03-16T04:25:17.747Z,101106.81
2023-03-16T04:26:21.799Z,101110.34
2023-03-16T04:27:24.318Z,101111.41
2023-03-16T04:28:26.841Z,101121.09
2023-03-16T04:29:29.280Z,101109.94
2023-03-16T04:30:32.871Z,101122.06
2023-03-16T04:31:46.757Z,101114.78
2023-03-16T04:32:49.303Z,101118.66
2023-03-16T04:33:54.880Z,101116.72
2023-03-16T04:34:58.110Z,101126.53
2023-03-16T04:36:12.113Z,101122.78
2023-03-16T04:37:14.665Z,101107.41
2023-03-16T04:38:18.864Z,101126.31
2023-03-16T04:39:32.515Z,101127.16
2023-03-16T04:40:35.238Z,101130.75
2023-03-16T04:41:46.858Z,101129.94
2023-03-16T04:42:54.516Z,101135.25
2023-03-16T04:43:57.756Z,101136.09
2023-03-16T04:45:00.374Z,101135.25
2023-03-16T04:46:04.169Z,101132.69
2023-03-16T04:47:06.618Z,101138.03
2023-03-16T04:48:14.083Z,101135.59
2023-03-16T04:49:15.844Z,101136.31
2023-03-16T04:50:20.066Z,101146.97
2023-03-16T04:51:27.858Z,101136.56
2023-03-16T04:52:41.319Z,101141.66
2023-03-16T04:53:44.641Z,101150.38
2023-03-16T04:54:58.993Z,101134.63
2023-03-16T04:56:01.074Z,101154.72
2023-03-16T04:57:06.234Z,101147.44
2023-03-16T04:58:14.244Z,101158.25
2023-03-16T04:59:16.070Z,101144.94
2023-03-16T05:00:27.216Z,101133.16
2023-03-16T05:01:38.446Z,101166.25
2023-03-16T05:02:41.617Z,101169.00
2023-03-16T05:03:43.717Z,101171.66
2023-03-16T05:04:45.712Z,101162.59
2023-03-16T05:05:48.540Z,101173.59
2023-03-16T05:06:51.535Z,101181.59
2023-03-16T05:07:57.242Z,101185.94
2023-03-16T05:09:02.200Z,101186.81
2023-03-16T05:10:05.392Z,101182.56
2023-03-16T05:11:07.653Z,101192.22
2023-03-16T05:12:13.971Z,101190.44
2023-03-16T05:13:17.586Z,101195.63
2023-03-16T05:14:21.623Z,101181.09
2023-03-16T05:15:49.539Z,101184.25
2023-03-16T05:17:02.681Z,101193.59
2023-03-16T05:18:05.010Z,101180.84
2023-03-16T05:19:06.908Z,101187.63
2023-03-16T05:20:15.507Z,101196.59
2023-03-16T05:21:22.815Z,101171.66
2023-03-16T05:22:36.440Z,101174.69
2023-03-16T05:23:49.679Z,101195.28
2023-03-16T05:24:52.098Z,101201.72
2023-03-16T05:25:53.935Z,101191.75
2023-03-16T05:26:58.792Z,101196.09
2023-03-16T05:28:01.007Z,101203.75
2023-03-16T05:29:08.637Z,101202.78
2023-03-16T05:30:11.904Z,101205.78
2023-03-16T05:31:14.250Z,101205.53
2023-03-16T05:32:22.267Z,101191.75
2023-03-16T05:33:24.092Z,101211.59
2023-03-16T05:34:31.670Z,101203.25
2023-03-16T05:35:34.011Z,101218.75
2023-03-16T05:36:40.193Z,101217.88
2023-03-16T05:37:47.034Z,101219.59
2023-03-16T05:38:52.782Z,101220.56
2023-03-16T05:40:17.467Z,101215.97
2023-03-16T05:41:24.301Z,101206.75
2023-03-16T05:42:55.974Z,101228.09
2023-03-16T05:43:58.703Z,101227.25
2023-03-16T05:45:06.452Z,101234.59
2023-03-16T05:46:28.200Z,101238.75
2023-03-16T05:47:30.823Z,101242.59
2023-03-16T05:48:33.052Z,101240.06
2023-03-16T05:49:35.301Z,101241.13
2023-03-16T05:50:42.121Z,101246.44
2023-03-16T05:51:44.318Z,101244.75
2023-03-16T05:52:46.640Z,101239.56
2023-03-16T05:53:56.727Z,101244.75
2023-03-16T05:55:08.516Z,101229.00
2023-03-16T05:56:10.717Z,101238.59
2023-03-16T05:57:16.470Z,101251.75
2023-03-16T05:58:21.376Z,101255.41
2023-03-16T05:59:24.824Z,101265.22
2023-03-16T06:00:30.903Z,101252.72
2023-03-16T06:01:44.050Z,101253.69
2023-03-16T06:02:48.862Z,101253.69
2023-03-16T06:03:52.454Z,101252.22
2023-03-16T06:04:59.396Z,101268.69
2023-03-16T06:06:02.234Z,101263.50
2023-03-16T06:07:12.408Z,101254.38
2023-03-16T06:08:15.562Z,101257.06
2023-03-16T06:09:21.088Z,101263.97
2023-03-16T06:10:23.208Z,101282.88
2023-03-16T06:11:25.185Z,101281.03
2023-03-16T06:12:27.218Z,101283.72
2023-03-16T06:13:29.100Z,101270.13
2023-03-16T06:14:31.191Z,101285.19
2023-03-16T06:15:34.023Z,101283.47
2023-03-16T06:16:37.873Z,101283.88
2023-03-16T06:17:41.600Z,101297.09
2023-03-16T06:18:44.087Z,101292.38
2023-03-16T06:19:46.640Z,101292.28
2023-03-16T06:20:48.594Z,101298.19
2023-03-16T06:21:50.604Z,101297.13
2023-03-16T06:22:53.221Z,101295.06
2023-03-16T06:23:56.023Z,101288.69
2023-03-16T06:24:57.867Z,101281.25
2023-03-16T06:26:01.258Z,101289.06
2023-03-16T06:27:05.262Z,101296.69
2023-03-16T06:28:16.842Z,101298.91
2023-03-16T06:29:18.695Z,101297.97
2023-03-16T06:30:21.325Z,101304.88
2023-03-16T06:31:23.140Z,101306.47
2023-03-16T06:32:25.724Z,101308.03
2023-03-16T06:33:27.692Z,101306.25
2023-03-16T06:34:29.543Z,101299.06
2023-03-16T06:35:32.048Z,101303.94
2023-03-16T06:36:50.186Z,101309.56
2023-03-16T06:37:51.986Z,101309.56
2023-03-16T06:39:08.164Z,101309.06
2023-03-16T06:40:14.267Z,101299.97
2023-03-16T06:41:16.113Z,101313.31
2023-03-16T06:42:20.717Z,101303.97
2023-03-16T06:43:22.592Z,101322.03
2023-03-16T06:44:25.650Z,101320.09
2023-03-16T06:45:34.737Z,101321.53
2023-03-16T06:46:38.055Z,101321.91
2023-03-16T06:47:39.950Z,101317.91
2023-03-16T06:48:42.067Z,101317.31
2023-03-16T06:49:44.497Z,101303.75
2023-03-16T06:50:54.448Z,101327.16
2023-03-16T06:52:00.869Z,101326.19
2023-03-16T06:53:03.008Z,101321.69
2023-03-16T06:54:06.786Z,101311.41
2023-03-16T06:55:14.445Z,101322.31
2023-03-16T06:56:20.061Z,101318.19
2023-03-16T06:57:22.540Z,101326.53
2023-03-16T06:58:25.455Z,101329.09
2023-03-16T06:59:27.983Z,101331.78
2023-03-16T07:00:30.948Z,101330.81
2023-03-16T07:01:32.951Z,101329.94
2023-03-16T07:02:35.897Z,101341.34
2023-03-16T07:03:39.236Z,101338.41
2023-03-16T07:04:54.253Z,101345.25
2023-03-16T07:05:56.106Z,101352.28
2023-03-16T07:06:58.228Z,101336.13
2023-03-16T07:08:00.313Z,101343.16
2023-03-16T07:09:02.186Z,101351.31
2023-03-16T07:10:06.086Z,101349.47
2023-03-16T07:11:08.084Z,101351.16
2023-03-16T07:12:10.717Z,101340.97
2023-03-16T07:13:12.777Z,101355.44
2023-03-16T07:14:15.419Z,101358.09
2023-03-16T07:15:17.894Z,101365.13
2023-03-16T07:16:20.786Z,101358.81
2023-03-16T07:17:23.218Z,101362.31
2023-03-16T07:18:26.255Z,101364.03
2023-03-16T07:19:29.381Z,101369.25
2023-03-16T07:20:35.381Z,101377.97
2023-03-16T07:21:41.993Z,101373.47
2023-03-16T07:22:48.716Z,101366.34
2023-03-16T07:23:51.769Z,101371.53
2023-03-16T07:24:59.397Z,101357.72
2023-03-16T07:26:03.721Z,101371.44
2023-03-16T07:27:07.513Z,101366.44
2023-03-16T07:28:09.293Z,101361.25
2023-03-16T07:29:17.251Z,101375.66
2023-03-16T07:30:19.824Z,101362.81
2023-03-16T07:31:24.737Z,101377.34
2023-03-16T07:32:26.987Z,101373.00
2023-03-16T07:33:29.005Z,101365.38
2023-03-16T07:34:31.501Z,101359.41
2023-03-16T07:35:34.300Z,101379.09
2023-03-16T07:36:36.403Z,101372.78
2023-03-16T07:37:39.221Z,101345.25
2023-03-16T07:38:42.529Z,101374.47
2023-03-16T07:39:45.076Z,101377.88
2023-03-16T07:40:52.359Z,101376.91
2023-03-16T07:41:57.278Z,101377.75
2023-03-16T07:43:13.942Z,101379.09
2023-03-16T07:44:24.006Z,101384.41
2023-03-16T07:45:27.238Z,101369.16
2023-03-16T07:46:29.690Z,101374.72
2023-03-16T07:47:31.720Z,101374.81
2023-03-16T07:48:38.229Z,101374.97
2023-03-16T07:49:41.717Z,101377.38
2023-03-16T07:50:44.481Z,101377.63
2023-03-16T07:51:46.444Z,101381.75
2023-03-16T07:52:50.040Z,101384.66
2023-03-16T07:53:51.907Z,101385.25
2023-03-16T07:55:00.016Z,101382.47
2023-03-16T07:56:02.027Z,101381.03
2023-03-16T07:57:06.506Z,101385.00
2023-03-16T07:58:13.702Z,101386.63
2023-03-16T07:59:20.397Z,101392.91
2023-03-16T08:00:24.254Z,101401.69
2023-03-16T08:01:26.484Z,101401.75
2023-03-16T08:02:28.936Z,101398.25
2023-03-16T08:03:32.190Z,101382.81
2023-03-16T08:04:34.508Z,101405.31
2023-03-16T08:05:37.635Z,101396.53
2023-03-16T08:06:45.488Z,101399.72
2023-03-16T08:07:47.506Z,101398.03
2023-03-16T08:08:53.867Z,101402.41
2023-03-16T08:10:03.453Z,101374.25
2023-03-16T08:11:14.426Z,101410.16
2023-03-16T08:12:24.015Z,101402.06
2023-03-16T08:13:27.261Z,101401.19
2023-03-16T08:14:30.295Z,101392.81
2023-03-16T08:15:42.506Z,101416.13
2023-03-16T08:16:55.138Z,101403.50
2023-03-16T08:17:59.280Z,101413.31
2023-03-16T08:19:02.544Z,101423.03
2023-03-16T08:20:10.887Z,101412.47
2023-03-16T08:21:12.968Z,101415.88
2023-03-16T08:22:14.909Z,101408.84
2023-03-16T08:23:20.049Z,101420.34
2023-03-16T08:24:21.980Z,101422.19
2023-03-16T08:25:24.466Z,101410.16
2023-03-16T08:26:41.192Z,101421.81
2023-03-16T08:27:43.351Z,101424.84
2023-03-16T08:28:46.916Z,101427.38
2023-03-16T08:29:52.448Z,101426.41
2023-03-16T08:30:56.063Z,101431.50
2023-03-16T08:32:10.987Z,101432.25
2023-03-16T08:33:22.525Z,101431.41
2023-03-16T08:34:27.342Z,101435.88
2023-03-16T08:35:29.896Z,101425.44
2023-03-16T08:36:31.741Z,101435.88
2023-03-16T08:37:35.935Z,101417.81
2023-03-16T08:38:40.058Z,101428.84
2023-03-16T08:39:44.316Z,101434.91
2023-03-16T08:40:51.054Z,101437.47
2023-03-16T08:41:56.718Z,101443.66
2023-03-16T08:43:09.249Z,101435.38
2023-03-16T08:44:11.369Z,101435.63
2023-03-16T08:45:14.376Z,101448.00
2023-03-16T08:46:18.041Z,101439.16
2023-03-16T08:47:29.762Z,101435.38
2023-03-16T08:48:33.502Z,101422.06
2023-03-16T08:49:35.632Z,101429.72
2023-03-16T08:50:46.703Z,101444.16
2023-03-16T08:51:48.748Z,101447.81
2023-03-16T08:52:50.992Z,101447.81
2023-03-16T08:53:52.983Z,101446.94
2023-03-16T08:55:03.105Z,101453.97
2023-03-16T08:56:07.884Z,101446.81
2023-03-16T08:57:10.684Z,101453.00
2023-03-16T08:58:12.963Z,101453.88
2023-03-16T08:59:27.365Z,101448.63
2023-03-16T09:00:31.617Z,101449.25
2023-03-16T09:01:34.184Z,101443.53
2023-03-16T09:02:38.801Z,101442.91
2023-03-16T09:03:45.825Z,101434.19
2023-03-16T09:04:47.948Z,101451.91
2023-03-16T09:05:49.713Z,101454.59
2023-03-16T09:07:05.941Z,101457.38
2023-03-16T09:08:10.062Z,101461.38
2023-03-16T09:09:11.848Z,101458.00
2023-03-16T09:10:25.535Z,101455.91
2023-03-16T09:11:30.632Z,101464.06
2023-03-16T09:12:35.819Z,101465.38
2023-03-16T09:13:39.411Z,101474.00
2023-03-16T09:14:41.216Z,101474.84
2023-03-16T09:15:43.050Z,101474.84
2023-03-16T09:16:46.052Z,101478.47
2023-03-16T09:17:48.155Z,101477.91
2023-03-16T09:18:49.966Z,101478.47
2023-03-16T09:19:53.338Z,101487.47
2023-03-16T09:21:01.478Z,101490.88
2023-03-16T09:22:04.047Z,101483.34
2023-03-16T09:23:06.025Z,101491.72
2023-03-16T09:24:08.957Z,101485.53
2023-03-16T09:25:11.316Z,101495.38
2023-03-16T09:26:13.686Z,101499.75
2023-03-16T09:27:16.245Z,101491.84
2023-03-16T09:28:20.971Z,101496.19
2023-03-16T09:29:24.553Z,101484.94
2023-03-16T09:30:26.877Z,101491.72
2023-03-16T09:31:28.717Z,101495.13
2023-03-16T09:32:30.894Z,101500.47
2023-03-16T09:33:33.857Z,101503.13
2023-03-16T09:34:36.006Z,101495.13
2023-03-16T09:35:38.109Z,101495.00
2023-03-16T09:36:40.926Z,101479.06
2023-03-16T09:38:04.367Z,101494.41
2023-03-16T09:39:04.814Z,101504.44
2023-03-16T09:40:12.036Z,101501.91
2023-03-16T09:41:29.601Z,101504.44
2023-03-16T09:42:37.865Z,101508.72
2023-03-16T09:44:00.251Z,101509.53
2023-03-16T09:45:35.918Z,101513.56
2023-03-16T09:46:43.763Z,101515.41
2023-03-16T09:47:47.840Z,101513.81
2023-03-16T09:48:49.645Z,101512.59
2023-03-16T09:49:52.967Z,101526.44
2023-03-16T09:50:56.714Z,101527.41
2023-03-16T09:52:17.349Z,101520.97
2023-03-16T09:53:31.877Z,101523.63
2023-03-16T09:54:49.574Z,101528.75
2023-03-16T09:56:15.067Z,101530.56
2023-03-16T09:57:27.856Z,101534.69
2023-03-16T09:58:30.856Z,101533.97
2023-03-16T09:59:32.700Z,101540.28
2023-03-16T10:00:42.046Z,101534.44
2023-03-16T10:01:49.865Z,101530.31
2023-03-16T10:03:10.131Z,101545.88
2023-03-16T10:04:40.805Z,101547.47
2023-03-16T10:05:42.679Z,101548.78
2023-03-16T10:06:55.889Z,101548.44
2023-03-16T10:08:09.095Z,101544.66
2023-03-16T10:09:26.285Z,101547.94
2023-03-16T10:10:46.981Z,101549.75
2023-03-16T10:11:53.404Z,101541.00
2023-03-16T10:13:00.239Z,101534.56
2023-03-16T10:14:11.198Z,101515.88
2023-03-16T10:15:17.028Z,101550.97
2023-03-16T10:16:31.894Z,101545.63
2023-03-16T10:17:50.094Z,101547.06
2023-03-16T10:19:01.332Z,101554.38
2023-03-16T10:20:09.167Z,101554.38
2023-03-16T10:21:16.977Z,101540.41
2023-03-16T10:22:31.934Z,101553.38
2023-03-16T10:23:35.355Z,101526.69
2023-03-16T10:24:45.760Z,101555.34
2023-03-16T10:25:51.096Z,101552.66
2023-03-16T10:27:04.891Z,101556.06
2023-03-16T10:28:06.721Z,101560.44
2023-03-16T10:29:13.243Z,101558.88
2023-03-16T10:30:22.233Z,101552.66
2023-03-16T10:31:24.678Z,101563.09
2023-03-16T10:32:32.001Z,101547.06
2023-03-16T10:33:36.740Z,101562.25
2023-03-16T10:34:38.623Z,101565.78
2023-03-16T10:35:51.692Z,101560.44
2023-03-16T10:36:55.159Z,101571.75
2023-03-16T10:37:58.635Z,101570.03
2023-03-16T10:39:05.304Z,101556.31
2023-03-16T10:40:09.304Z,101554.50
2023-03-16T10:41:20.551Z,101573.44
2023-03-16T10:42:22.569Z,101574.16
2023-03-16T10:43:25.237Z,101567.97
2023-03-16T10:44:28.629Z,101560.44
2023-03-16T10:45:34.312Z,101578.63
2023-03-16T10:46:48.488Z,101579.50
2023-03-16T10:47:50.518Z,101580.09
2023-03-16T10:49:00.458Z,101578.41
2023-03-16T10:50:20.712Z,101579.03
2023-03-16T10:51:31.056Z,101580.09
2023-03-16T10:52:43.199Z,101581.56
2023-03-16T10:53:45.574Z,101586.06
2023-03-16T10:54:59.976Z,101584.38
2023-03-16T10:56:12.175Z,101580.34
2023-03-16T10:57:25.595Z,101586.91
2023-03-16T10:58:32.252Z,101587.75
2023-03-16T10:59:35.699Z,101580.25
2023-03-16T11:00:43.411Z,101598.44
2023-03-16T11:01:50.031Z,101589.56
2023-03-16T11:02:56.848Z,101587.03
2023-03-16T11:03:59.174Z,101595.69
2023-03-16T11:05:23.980Z,101595.44
2023-03-16T11:06:31.261Z,101595.69
2023-03-16T11:07:33.783Z,101590.91
2023-03-16T11:08:40.002Z,101597.38
2023-03-16T11:09:43.151Z,101595.69
2023-03-16T11:10:55.525Z,101601.03
2023-03-16T11:11:58.050Z,101599.06
2023-03-16T11:13:20.057Z,101597.84
2023-03-16T11:14:25.958Z,101603.31
2023-03-16T11:15:37.022Z,101581.81
2023-03-16T11:16:47.925Z,101600.53
2023-03-16T11:17:53.650Z,101604.19
2023-03-16T11:18:58.741Z,101608.66
2023-03-16T11:20:17.458Z,101614.00
2023-03-16T11:21:42.140Z,101602.81
2023-03-16T11:22:48.555Z,101602.00
2023-03-16T11:23:55.187Z,101604.91
2023-03-16T11:25:03.134Z,101602.22
2023-03-16T11:26:12.318Z,101611.22
2023-03-16T11:27:30.431Z,101604.19
2023-03-16T11:28:41.870Z,101602.97
2023-03-16T11:30:02.356Z,101603.53
2023-03-16T11:31:19.345Z,101600.28
2023-03-16T11:32:27.753Z,101606.34
2023-03-16T11:33:31.323Z,101607.34
2023-03-16T11:34:35.302Z,101604.28
2023-03-16T11:35:57.994Z,101604.91
2023-03-16T11:37:25.716Z,101612.53
2023-03-16T11:38:48.951Z,101612.06
2023-03-16T11:40:15.471Z,101602.22
2023-03-16T11:41:32.697Z,101603.44
2023-03-16T11:42:44.114Z,101606.94
2023-03-16T11:43:48.712Z,101613.16
2023-03-16T11:44:59.601Z,101612.44
2023-03-16T11:46:15.565Z,101610.59
2023-03-16T11:47:38.513Z,101614.13
2023-03-16T11:48:48.508Z,101619.97
2023-03-16T11:50:02.442Z,101616.41
2023-03-16T11:51:07.727Z,101619.22
2023-03-16T11:52:28.212Z,101614.63
2023-03-16T11:53:45.311Z,101618.38
2023-03-16T11:55:17.877Z,101618.25
2023-03-16T11:56:49.749Z,101621.91
2023-03-16T11:58:16.554Z,101625.78
2023-03-16T11:59:29.131Z,101619.00
2023-03-16T12:00:37.333Z,101626.91
2023-03-16T12:01:58.184Z,101629.69
2023-03-16T12:03:23.072Z,101627.72
2023-03-16T12:04:43.083Z,101616.31
2023-03-16T12:06:17.022Z,101631.03
2023-03-16T12:07:31.683Z,101636.22
2023-03-16T12:08:47.796Z,101633.81
2023-03-16T12:10:02.353Z,101642.69
2023-03-16T12:11:14.897Z,101644.50
2023-03-16T12:12:30.614Z,101637.44
2023-03-16T12:13:38.671Z,101635.66
2023-03-16T12:15:29.831Z,101644.00
2023-03-16T12:17:03.916Z,101642.81
2023-03-16T12:18:42.521Z,101630.56
2023-03-16T12:19:55.889Z,101622.88
2023-03-16T12:21:01.787Z,101632.59
2023-03-16T12:22:20.137Z,101636.97
2023-03-16T12:23:32.732Z,101626.03
2023-03-16T12:24:42.624Z,101634.53
2023-03-16T12:25:49.148Z,101631.13
2023-03-16T12:26:53.463Z,101635.50
2023-03-16T12:27:58.944Z,101632.97
2023-03-16T12:29:10.466Z,101640.03
2023-03-16T12:30:42.813Z,101642.44
2023-03-16T12:31:56.051Z,101644.78
2023-03-16T12:33:34.636Z,101645.50
2023-03-16T12:34:56.216Z,101647.94
2023-03-16T12:36:17.808Z,101647.09
2023-03-16T12:37:27.627Z,101641.34
2023-03-16T12:38:43.461Z,101647.44
2023-03-16T12:39:45.803Z,101655.47
2023-03-16T12:41:25.787Z,101646.22